createdAt,value
2017-11-24T00:00:02.487Z,10.11
2017-11-24T00:00:06.860Z,10.2
2017-11-24T00:00:11.012Z,10.16
2017-11-24T00:00:15.290Z,10.13
2017-11-24T00:00:19.549Z,10.2
2017-11-24T00:00:23.804Z,10.16
2017-11-24T00:00:28.078Z,10.16
2017-11-24T00:00:32.486Z,10.13
2017-11-24T00:00:36.656Z,10.16
2017-11-24T00:00:40.672Z,10.16
2017-11-24T00:00:44.946Z,10.11
2017-11-24T00:00:49.204Z,10.16
2017-11-24T00:00:53.238Z,10.16
2017-11-24T00:00:57.499Z,10.17
2017-11-24T00:01:01.861Z,10.1
2017-11-24T00:01:06.332Z,10.17
2017-11-24T00:01:10.711Z,10.11
2017-11-24T00:01:14.873Z,10.14
2017-11-24T00:01:19.126Z,10.16
2017-11-24T00:01:23.291Z,10.14
2017-11-24T00:01:27.444Z,10.17
2017-11-24T00:01:31.484Z,10.11
2017-11-24T00:01:35.745Z,10.16
2017-11-24T00:01:40.025Z,10.14
2017-11-24T00:01:44.177Z,10.13
2017-11-24T00:01:48.442Z,10.17
2017-11-24T00:01:52.759Z,10.16
2017-11-24T00:01:57.130Z,10.17
2017-11-24T00:02:01.395Z,10.11
2017-11-24T00:02:05.821Z,10.2
2017-11-24T00:02:09.855Z,10.14
2017-11-24T00:02:14.129Z,10.14
2017-11-24T00:02:18.316Z,10.14
2017-11-24T00:02:22.583Z,10.16
2017-11-24T00:02:26.851Z,10.13
2017-11-24T00:02:31.234Z,10.13
2017-11-24T00:02:35.485Z,10.2
2017-11-24T00:02:39.859Z,10.16
2017-11-24T00:02:44.232Z,10.14
2017-11-24T00:02:48.641Z,10.22
2017-11-24T00:02:53.012Z,10.11
2017-11-24T00:02:57.307Z,10.13
2017-11-24T00:03:01.348Z,10.17
2017-11-24T00:03:05.733Z,10.11
2017-11-24T00:03:10.129Z,10.13
2017-11-24T00:03:14.276Z,10.13
2017-11-24T00:03:18.542Z,10.14
2017-11-24T00:03:22.919Z,10.14
2017-11-24T00:03:26.951Z,10.22
2017-11-24T00:03:31.346Z,10.13
2017-11-24T00:03:35.623Z,10.11
2017-11-24T00:03:40.025Z,10.11
2017-11-24T00:03:44.281Z,10.14
2017-11-24T00:03:48.647Z,10.14
2017-11-24T00:03:53.034Z,10.16
2017-11-24T00:03:57.319Z,10.18
2017-11-24T00:04:01.594Z,10.18
2017-11-24T00:04:05.984Z,10.14
2017-11-24T00:04:10.274Z,10.14
2017-11-24T00:04:14.650Z,10.11
2017-11-24T00:04:19.021Z,10.14
2017-11-24T00:04:23.304Z,10.17
2017-11-24T00:04:27.553Z,10.16
2017-11-24T00:04:31.811Z,10.18
2017-11-24T00:04:36.115Z,10.1
2017-11-24T00:04:40.402Z,10.18
2017-11-24T00:04:44.764Z,10.2
2017-11-24T00:04:49.052Z,10.16
2017-11-24T00:04:53.316Z,10.18
2017-11-24T00:04:57.591Z,10.09
2017-11-24T00:05:01.862Z,10.16
2017-11-24T00:05:06.125Z,10.13
2017-11-24T00:05:10.515Z,10.16
2017-11-24T00:05:14.795Z,10.13
2017-11-24T00:05:19.152Z,10.16
2017-11-24T00:05:23.519Z,10.14
2017-11-24T00:05:27.688Z,10.14
2017-11-24T00:05:31.945Z,10.11
2017-11-24T00:05:36.223Z,10.16
2017-11-24T00:05:40.509Z,10.11
2017-11-24T00:05:44.690Z,10.13
2017-11-24T00:05:49.072Z,10.14
2017-11-24T00:05:53.360Z,10.18
2017-11-24T00:05:57.545Z,10.14
2017-11-24T00:06:02.282Z,10.11
2017-11-24T00:06:06.562Z,10.16
2017-11-24T00:06:10.823Z,10.13
2017-11-24T00:06:14.868Z,10.18
2017-11-24T00:06:19.129Z,10.13
2017-11-24T00:06:23.498Z,10.11
2017-11-24T00:06:27.656Z,10.14
2017-11-24T00:06:31.923Z,10.14
2017-11-24T00:06:36.200Z,10.14
2017-11-24T00:06:40.579Z,10.16
2017-11-24T00:06:44.957Z,10.13
2017-11-24T00:06:49.414Z,10.11
2017-11-24T00:06:53.568Z,10.13
2017-11-24T00:06:57.831Z,10.13
2017-11-24T00:07:02.497Z,10.14
2017-11-24T00:07:06.864Z,10.14
2017-11-24T00:07:10.999Z,10.14
2017-11-24T00:07:15.382Z,10.16
2017-11-24T00:07:19.540Z,10.14
2017-11-24T00:07:23.691Z,10.16
2017-11-24T00:07:28.059Z,10.1
2017-11-24T00:07:32.331Z,10.14
2017-11-24T00:07:36.490Z,10.16
2017-11-24T00:07:40.750Z,10.16
2017-11-24T00:07:45.133Z,10.11
2017-11-24T00:07:49.512Z,10.17
2017-11-24T00:07:53.894Z,10.14
2017-11-24T00:07:58.177Z,10.11
2017-11-24T00:08:02.846Z,10.14
2017-11-24T00:08:07.137Z,10.11
2017-11-24T00:08:11.410Z,10.16
2017-11-24T00:08:15.779Z,10.13
2017-11-24T00:08:19.942Z,10.17
2017-11-24T00:08:24.311Z,10.13
2017-11-24T00:08:28.569Z,10.16
2017-11-24T00:08:32.944Z,10.13
2017-11-24T00:08:37.208Z,10.11
2017-11-24T00:08:41.582Z,10.22
2017-11-24T00:08:45.976Z,10.11
2017-11-24T00:08:50.134Z,10.16
2017-11-24T00:08:54.393Z,10.13
2017-11-24T00:08:58.742Z,10.1
2017-11-24T00:09:03.203Z,10.16
2017-11-24T00:09:07.480Z,10.11
2017-11-24T00:09:11.875Z,10.16
2017-11-24T00:09:16.270Z,10.13
2017-11-24T00:09:20.632Z,10.11
2017-11-24T00:09:24.908Z,10.16
2017-11-24T00:09:29.193Z,10.18
2017-11-24T00:09:33.460Z,10.04
2017-11-24T00:09:37.733Z,10.14
2017-11-24T00:09:42.005Z,10.17
2017-11-24T00:09:46.267Z,10.13
2017-11-24T00:09:50.406Z,10.16
2017-11-24T00:09:54.567Z,10.17
2017-11-24T00:09:58.957Z,10.11
2017-11-24T00:10:03.334Z,10.18
2017-11-24T00:10:07.661Z,10.17
2017-11-24T00:10:11.828Z,10.16
2017-11-24T00:10:15.977Z,10.16
2017-11-24T00:10:20.255Z,10.18
2017-11-24T00:10:24.625Z,10.13
2017-11-24T00:10:29.001Z,10.02
2017-11-24T00:10:33.285Z,10.1
2017-11-24T00:10:37.458Z,10.14
2017-11-24T00:10:41.825Z,10.16
2017-11-24T00:10:46.199Z,10.16
2017-11-24T00:10:50.577Z,10.17
2017-11-24T00:10:54.838Z,10.16
2017-11-24T00:10:59.105Z,10.14
2017-11-24T00:11:03.497Z,10.17
2017-11-24T00:11:07.751Z,10.13
2017-11-24T00:11:11.912Z,10.11
2017-11-24T00:11:16.287Z,9.99
2017-11-24T00:11:20.438Z,10.13
2017-11-24T00:11:24.831Z,10.14
2017-11-24T00:11:29.081Z,10.13
2017-11-24T00:11:33.331Z,10.16
2017-11-24T00:11:37.617Z,10.17
2017-11-24T00:11:42.045Z,10.18
2017-11-24T00:11:46.316Z,10.14
2017-11-24T00:11:50.470Z,10.13
2017-11-24T00:11:54.857Z,10.13
2017-11-24T00:11:59.259Z,10.16
2017-11-24T00:12:03.693Z,10.13
2017-11-24T00:12:07.847Z,10.09
2017-11-24T00:12:12.210Z,10.16
2017-11-24T00:12:16.589Z,10.13
2017-11-24T00:12:20.621Z,10.04
2017-11-24T00:12:24.875Z,10.17
2017-11-24T00:12:29.242Z,10.16
2017-11-24T00:12:33.419Z,10.14
2017-11-24T00:12:37.345Z,10.1
2017-11-24T00:12:41.599Z,10.18
2017-11-24T00:12:45.964Z,10.16
2017-11-24T00:12:50.009Z,10.14
2017-11-24T00:12:54.275Z,10.11
2017-11-24T00:12:58.649Z,10.16
2017-11-24T00:13:03.286Z,10.24
2017-11-24T00:13:07.544Z,10.1
2017-11-24T00:13:11.802Z,10.16
2017-11-24T00:13:16.069Z,10.06
2017-11-24T00:13:20.321Z,10.16
2017-11-24T00:13:24.713Z,10.14
2017-11-24T00:13:29.098Z,10.14
2017-11-24T00:13:33.356Z,10.13
2017-11-24T00:13:37.630Z,10.16
2017-11-24T00:13:42.011Z,10.01
2017-11-24T00:13:46.176Z,10.16
2017-11-24T00:13:50.556Z,10.14
2017-11-24T00:13:54.824Z,10.13
2017-11-24T00:13:59.206Z,10.13
2017-11-24T00:14:03.630Z,10.13
2017-11-24T00:14:08.021Z,10.14
2017-11-24T00:14:12.279Z,10.13
2017-11-24T00:14:16.665Z,10.13
2017-11-24T00:14:20.928Z,10.13
2017-11-24T00:14:25.208Z,10.16
2017-11-24T00:14:29.352Z,10.13
2017-11-24T00:14:33.722Z,10.13
2017-11-24T00:14:37.892Z,10.1
2017-11-24T00:14:42.170Z,10.09
2017-11-24T00:14:46.437Z,10.13
2017-11-24T00:14:50.583Z,10.16
2017-11-24T00:14:54.613Z,10.13
2017-11-24T00:14:58.772Z,10.14
2017-11-24T00:15:03.052Z,10.11
2017-11-24T00:15:07.349Z,10.11
2017-11-24T00:15:11.615Z,10.14
2017-11-24T00:15:15.995Z,10.14
2017-11-24T00:15:20.271Z,10.11
2017-11-24T00:15:24.309Z,10.17
2017-11-24T00:15:28.700Z,10.14
2017-11-24T00:15:33.128Z,10.13
2017-11-24T00:15:37.385Z,10.13
2017-11-24T00:15:41.787Z,10.11
2017-11-24T00:15:46.078Z,10.16
2017-11-24T00:15:50.451Z,10.16
2017-11-24T00:15:54.614Z,10.11
2017-11-24T00:15:58.865Z,10.13
2017-11-24T00:16:03.227Z,10.16
2017-11-24T00:16:07.478Z,10.11
2017-11-24T00:16:11.674Z,10.11
2017-11-24T00:16:15.836Z,10.14
2017-11-24T00:16:20.212Z,10.13
2017-11-24T00:16:24.488Z,10.06
2017-11-24T00:16:28.857Z,10.1
2017-11-24T00:16:33.242Z,10.14
2017-11-24T00:16:37.628Z,10.14
2017-11-24T00:16:41.899Z,10.02
2017-11-24T00:16:46.059Z,10.13
2017-11-24T00:16:50.316Z,10.1
2017-11-24T00:16:54.572Z,10.17
2017-11-24T00:16:58.859Z,9.99
2017-11-24T00:17:02.991Z,10.17
2017-11-24T00:17:07.382Z,10.11
2017-11-24T00:17:11.639Z,10.14
2017-11-24T00:17:16.013Z,10.1
2017-11-24T00:17:20.393Z,10.18
2017-11-24T00:17:24.540Z,10.13
2017-11-24T00:17:28.688Z,10.06
2017-11-24T00:17:32.953Z,10.11
2017-11-24T00:17:37.332Z,10.16
2017-11-24T00:17:41.366Z,10.13
2017-11-24T00:17:45.538Z,10.13
2017-11-24T00:17:49.835Z,10.14
2017-11-24T00:17:54.110Z,10.07
2017-11-24T00:17:58.487Z,10.16
2017-11-24T00:18:02.908Z,10.13
2017-11-24T00:18:06.953Z,10.16
2017-11-24T00:18:11.229Z,10.14
2017-11-24T00:18:15.598Z,10.11
2017-11-24T00:18:19.972Z,10.13
2017-11-24T00:18:24.335Z,10.14
2017-11-24T00:18:28.744Z,10.13
2017-11-24T00:18:33.138Z,10.13
2017-11-24T00:18:37.542Z,10.17
2017-11-24T00:18:41.688Z,10.18
2017-11-24T00:18:45.933Z,10.13
2017-11-24T00:18:50.095Z,10.14
2017-11-24T00:18:54.347Z,10.14
2017-11-24T00:18:58.602Z,10.06
2017-11-24T00:19:02.746Z,10.14
2017-11-24T00:19:07.148Z,10.06
2017-11-24T00:19:11.412Z,10.13
2017-11-24T00:19:15.689Z,10.02
2017-11-24T00:19:20.083Z,10.16
2017-11-24T00:19:24.360Z,10.14
2017-11-24T00:19:28.634Z,10.14
2017-11-24T00:19:33.003Z,10.06
2017-11-24T00:19:37.324Z,10.1
2017-11-24T00:19:41.462Z,10.16
2017-11-24T00:19:45.617Z,10.13
2017-11-24T00:19:49.980Z,10.1
2017-11-24T00:19:54.243Z,10.1
2017-11-24T00:19:58.638Z,10.1
2017-11-24T00:20:02.567Z,10.1
2017-11-24T00:20:06.603Z,10.06
2017-11-24T00:20:10.994Z,10.13
2017-11-24T00:20:15.252Z,10.11
2017-11-24T00:20:19.527Z,10.1
2017-11-24T00:20:23.797Z,10.13
2017-11-24T00:20:28.194Z,10.06
2017-11-24T00:20:32.571Z,10.17
2017-11-24T00:20:36.948Z,10.06
2017-11-24T00:20:41.203Z,10.11
2017-11-24T00:20:45.227Z,10.16
2017-11-24T00:20:49.579Z,10.07
2017-11-24T00:20:53.869Z,10.13
2017-11-24T00:20:58.163Z,10.14
2017-11-24T00:21:02.323Z,10.06
2017-11-24T00:21:06.599Z,10.09
2017-11-24T00:21:10.975Z,10.13
2017-11-24T00:21:15.252Z,10.09
2017-11-24T00:21:19.515Z,10.06
2017-11-24T00:21:23.771Z,10.09
2017-11-24T00:21:28.023Z,10.11
2017-11-24T00:21:32.297Z,10.07
2017-11-24T00:21:36.688Z,10.11
2017-11-24T00:21:40.854Z,10.06
2017-11-24T00:21:45.002Z,10.14
2017-11-24T00:21:49.366Z,10.06
2017-11-24T00:21:53.736Z,10.09
2017-11-24T00:21:58.165Z,10.04
2017-11-24T00:22:02.629Z,10.1
2017-11-24T00:22:06.993Z,10.07
2017-11-24T00:22:11.368Z,10.07
2017-11-24T00:22:15.522Z,10.04
2017-11-24T00:22:19.652Z,10.1
2017-11-24T00:22:23.813Z,10.02
2017-11-24T00:22:28.067Z,10.02
2017-11-24T00:22:32.430Z,10.02
2017-11-24T00:22:36.468Z,10.1
2017-11-24T00:22:40.732Z,10.06
2017-11-24T00:22:45.027Z,10.02
2017-11-24T00:22:49.304Z,10.02
2017-11-24T00:22:53.724Z,10.06
2017-11-24T00:22:57.885Z,10.04
2017-11-24T00:23:02.399Z,10.04
2017-11-24T00:23:06.775Z,10.04
2017-11-24T00:23:10.815Z,10.07
2017-11-24T00:23:14.968Z,10.1
2017-11-24T00:23:19.231Z,10.06
2017-11-24T00:23:23.483Z,9.99
2017-11-24T00:23:27.735Z,10.07
2017-11-24T00:23:31.994Z,9.99
2017-11-24T00:23:36.282Z,10.04
2017-11-24T00:23:40.421Z,10.02
2017-11-24T00:23:44.680Z,10.04
2017-11-24T00:23:48.978Z,9.99
2017-11-24T00:23:53.233Z,10.02
2017-11-24T00:23:57.614Z,10.07
2017-11-24T00:24:02.004Z,10.11
2017-11-24T00:24:06.365Z,9.98
2017-11-24T00:24:10.747Z,10.04
2017-11-24T00:24:14.827Z,10.01
2017-11-24T00:24:19.089Z,9.98
2017-11-24T00:24:23.460Z,10.04
2017-11-24T00:24:27.612Z,10.01
2017-11-24T00:24:31.983Z,9.99
2017-11-24T00:24:36.137Z,10.06
2017-11-24T00:24:40.525Z,10.01
2017-11-24T00:24:44.897Z,10.02
2017-11-24T00:24:49.284Z,10.01
2017-11-24T00:24:53.564Z,10.04
2017-11-24T00:24:57.912Z,9.96
2017-11-24T00:25:02.533Z,10.02
2017-11-24T00:25:06.694Z,10.06
2017-11-24T00:25:10.856Z,10.04
2017-11-24T00:25:15.232Z,9.99
2017-11-24T00:25:19.634Z,10.01
2017-11-24T00:25:24.001Z,10.02
2017-11-24T00:25:28.259Z,9.99
2017-11-24T00:25:32.533Z,10.01
2017-11-24T00:25:36.781Z,10.02
2017-11-24T00:26:13.143Z,9.93
2017-11-24T00:26:17.560Z,9.95
2017-11-24T00:26:21.919Z,9.93
2017-11-24T00:26:26.196Z,9.95
2017-11-24T00:26:30.474Z,9.96
2017-11-24T00:26:34.619Z,9.99
2017-11-24T00:26:39.001Z,9.96
2017-11-24T00:26:43.151Z,9.96
2017-11-24T00:26:47.518Z,9.93
2017-11-24T00:26:51.798Z,9.91
2017-11-24T00:26:56.204Z,9.98
2017-11-24T00:27:00.486Z,9.93
2017-11-24T00:27:04.649Z,9.93
2017-11-24T00:27:09.026Z,9.96
2017-11-24T00:27:13.278Z,9.93
2017-11-24T00:27:17.663Z,9.98
2017-11-24T00:27:21.961Z,9.96
2017-11-24T00:27:26.208Z,9.91
2017-11-24T00:27:30.369Z,9.92
2017-11-24T00:27:34.642Z,9.93
2017-11-24T00:27:39.014Z,9.95
2017-11-24T00:27:43.253Z,9.96
2017-11-24T00:27:47.436Z,9.93
2017-11-24T00:27:51.717Z,9.89
2017-11-24T00:27:55.970Z,9.93
2017-11-24T00:28:00.243Z,9.92
2017-11-24T00:28:04.513Z,9.91
2017-11-24T00:28:08.667Z,9.95
2017-11-24T00:28:12.718Z,9.95
2017-11-24T00:28:16.969Z,9.92
2017-11-24T00:28:21.245Z,9.92
2017-11-24T00:28:25.659Z,9.93
2017-11-24T00:28:30.030Z,9.96
2017-11-24T00:28:34.401Z,9.89
2017-11-24T00:28:38.672Z,9.93
2017-11-24T00:28:42.934Z,9.92
2017-11-24T00:28:46.978Z,9.92
2017-11-24T00:28:51.237Z,9.92
2017-11-24T00:28:55.507Z,9.93
2017-11-24T00:28:59.893Z,9.91
2017-11-24T00:29:04.166Z,9.92
2017-11-24T00:29:08.547Z,9.91
2017-11-24T00:29:12.813Z,9.93
2017-11-24T00:29:17.078Z,9.92
2017-11-24T00:29:21.333Z,9.98
2017-11-24T00:29:25.474Z,9.93
2017-11-24T00:29:29.741Z,9.93
2017-11-24T00:29:34.146Z,9.88
2017-11-24T00:29:38.421Z,9.91
2017-11-24T00:29:42.798Z,9.93
2017-11-24T00:29:47.170Z,9.91
2017-11-24T00:29:51.326Z,9.93
2017-11-24T00:29:55.481Z,9.96
2017-11-24T00:29:59.632Z,9.86
2017-11-24T00:30:03.994Z,9.88
2017-11-24T00:30:08.267Z,9.92
2017-11-24T00:30:12.661Z,9.89
2017-11-24T00:30:17.047Z,9.86
2017-11-24T00:30:21.318Z,9.88
2017-11-24T00:30:25.601Z,9.89
2017-11-24T00:30:29.966Z,9.91
2017-11-24T00:30:34.217Z,9.89
2017-11-24T00:30:38.639Z,9.88
2017-11-24T00:30:42.896Z,9.88
2017-11-24T00:30:47.273Z,9.88
2017-11-24T00:30:51.662Z,9.83
2017-11-24T00:30:56.035Z,9.86
2017-11-24T00:31:00.195Z,9.86
2017-11-24T00:31:04.596Z,9.88
2017-11-24T00:31:08.856Z,9.86
2017-11-24T00:31:13.128Z,9.92
2017-11-24T00:31:17.400Z,9.77
2017-11-24T00:31:21.672Z,9.86
2017-11-24T00:31:26.032Z,9.81
2017-11-24T00:31:30.296Z,9.77
2017-11-24T00:31:34.552Z,9.85
2017-11-24T00:31:38.909Z,9.86
2017-11-24T00:31:42.939Z,9.78
2017-11-24T00:31:47.321Z,9.89
2017-11-24T00:31:51.610Z,9.85
2017-11-24T00:31:55.758Z,9.77
2017-11-24T00:32:00.007Z,9.86
2017-11-24T00:32:04.637Z,9.8
2017-11-24T00:32:08.918Z,9.83
2017-11-24T00:32:13.296Z,9.8
2017-11-24T00:32:17.686Z,9.8
2017-11-24T00:32:21.840Z,9.78
2017-11-24T00:32:26.116Z,9.8
2017-11-24T00:32:30.387Z,9.83
2017-11-24T00:32:34.760Z,9.8
2017-11-24T00:32:39.053Z,9.81
2017-11-24T00:32:43.316Z,9.86
2017-11-24T00:32:47.686Z,9.88
2017-11-24T00:32:52.051Z,9.77
2017-11-24T00:32:56.331Z,9.77
2017-11-24T00:33:00.631Z,9.83
2017-11-24T00:33:04.849Z,9.78
2017-11-24T00:33:09.270Z,9.88
2017-11-24T00:33:13.531Z,9.8
2017-11-24T00:33:17.813Z,9.8
2017-11-24T00:33:22.067Z,9.78
2017-11-24T00:33:26.343Z,9.78
2017-11-24T00:33:30.721Z,9.85
2017-11-24T00:33:35.141Z,9.77
2017-11-24T00:33:39.279Z,9.81
2017-11-24T00:33:43.640Z,9.8
2017-11-24T00:33:47.807Z,9.85
2017-11-24T00:33:52.184Z,9.81
2017-11-24T00:33:56.466Z,9.81
2017-11-24T00:34:00.626Z,9.83
2017-11-24T00:34:05.049Z,9.77
2017-11-24T00:34:09.318Z,9.81
2017-11-24T00:34:13.679Z,9.78
2017-11-24T00:34:17.947Z,9.78
2017-11-24T00:34:22.114Z,9.81
2017-11-24T00:34:26.157Z,9.81
2017-11-24T00:34:30.428Z,9.85
2017-11-24T00:34:34.694Z,9.81
2017-11-24T00:34:39.079Z,9.85
2017-11-24T00:34:43.561Z,9.83
2017-11-24T00:34:47.832Z,9.83
2017-11-24T00:34:51.986Z,9.81
2017-11-24T00:34:56.237Z,9.77
2017-11-24T00:35:00.296Z,9.81
2017-11-24T00:35:04.682Z,9.74
2017-11-24T00:35:08.726Z,9.78
2017-11-24T00:35:12.976Z,9.8
2017-11-24T00:35:17.381Z,9.8
2017-11-24T00:35:21.644Z,9.83
2017-11-24T00:35:25.790Z,9.77
2017-11-24T00:35:30.054Z,9.86
2017-11-24T00:35:34.311Z,9.78
2017-11-24T00:35:38.482Z,9.81
2017-11-24T00:35:42.766Z,9.88
2017-11-24T00:35:47.144Z,9.81
2017-11-24T00:35:51.514Z,9.81
2017-11-24T00:35:55.662Z,9.77
2017-11-24T00:35:59.829Z,9.83
2017-11-24T00:36:04.096Z,9.78
2017-11-24T00:36:08.374Z,9.78
2017-11-24T00:36:12.766Z,9.8
2017-11-24T00:36:17.125Z,9.8
2017-11-24T00:36:21.383Z,9.77
2017-11-24T00:36:25.546Z,9.83
2017-11-24T00:36:29.928Z,9.77
2017-11-24T00:36:34.311Z,9.77
2017-11-24T00:36:38.681Z,9.81
2017-11-24T00:36:42.836Z,9.83
2017-11-24T00:36:47.088Z,9.8
2017-11-24T00:36:51.487Z,9.81
2017-11-24T00:36:55.659Z,9.78
2017-11-24T00:36:59.915Z,9.8
2017-11-24T00:37:04.187Z,9.85
2017-11-24T00:37:08.588Z,9.85
2017-11-24T00:37:12.961Z,9.85
2017-11-24T00:37:17.341Z,9.77
2017-11-24T00:37:21.644Z,9.8
2017-11-24T00:37:25.903Z,9.75
2017-11-24T00:37:30.308Z,9.83
2017-11-24T00:37:34.558Z,9.85
2017-11-24T00:37:38.927Z,9.83
2017-11-24T00:37:43.076Z,9.8
2017-11-24T00:37:47.480Z,9.78
2017-11-24T00:37:51.837Z,9.88
2017-11-24T00:37:56.209Z,9.8
2017-11-24T00:38:00.486Z,9.81
2017-11-24T00:38:04.672Z,9.8
2017-11-24T00:38:08.703Z,9.83
2017-11-24T00:38:12.879Z,9.8
2017-11-24T00:38:17.148Z,9.8
2017-11-24T00:38:21.431Z,9.8
2017-11-24T00:38:25.820Z,9.81
2017-11-24T00:38:30.093Z,9.77
2017-11-24T00:38:34.345Z,9.83
2017-11-24T00:38:38.492Z,9.78
2017-11-24T00:38:42.881Z,9.8
2017-11-24T00:38:47.153Z,9.88
2017-11-24T00:38:51.530Z,9.83
2017-11-24T00:38:55.586Z,9.74
2017-11-24T00:38:59.941Z,9.78
2017-11-24T00:39:04.325Z,9.77
2017-11-24T00:39:08.589Z,9.77
2017-11-24T00:39:12.981Z,9.88
2017-11-24T00:39:17.236Z,9.83
2017-11-24T00:39:21.513Z,9.88
2017-11-24T00:39:25.767Z,9.78
2017-11-24T00:39:30.033Z,9.85
2017-11-24T00:39:34.409Z,9.78
2017-11-24T00:39:38.574Z,9.81
2017-11-24T00:39:42.824Z,9.75
2017-11-24T00:39:47.080Z,9.86
2017-11-24T00:39:51.350Z,9.8
2017-11-24T00:39:55.727Z,9.77
2017-11-24T00:39:59.876Z,9.83
2017-11-24T00:40:04.168Z,9.77
2017-11-24T00:40:08.335Z,9.8
2017-11-24T00:40:12.710Z,9.85
2017-11-24T00:40:17.090Z,9.81
2017-11-24T00:40:21.448Z,9.85
2017-11-24T00:40:25.738Z,9.83
2017-11-24T00:40:30.045Z,9.8
2017-11-24T00:40:34.313Z,9.8
2017-11-24T00:40:38.670Z,9.78
2017-11-24T00:40:42.834Z,9.8
2017-11-24T00:40:47.179Z,9.81
2017-11-24T00:40:51.329Z,9.73
2017-11-24T00:40:55.483Z,9.81
2017-11-24T00:40:59.681Z,9.77
2017-11-24T00:41:04.049Z,9.78
2017-11-24T00:41:08.344Z,9.71
2017-11-24T00:41:12.608Z,9.8
2017-11-24T00:41:16.977Z,9.81
2017-11-24T00:41:21.133Z,9.78
2017-11-24T00:41:25.536Z,9.74
2017-11-24T00:41:29.906Z,9.75
2017-11-24T00:41:34.047Z,9.75
2017-11-24T00:41:38.189Z,9.8
2017-11-24T00:41:42.552Z,9.83
2017-11-24T00:41:46.938Z,9.75
2017-11-24T00:41:51.100Z,9.75
2017-11-24T00:41:55.451Z,9.77
2017-11-24T00:41:59.707Z,9.73
2017-11-24T00:42:04.295Z,9.68
2017-11-24T00:42:08.234Z,9.77
2017-11-24T00:42:12.383Z,9.83
2017-11-24T00:42:16.661Z,9.71
2017-11-24T00:42:21.030Z,9.75
2017-11-24T00:42:25.413Z,9.71
2017-11-24T00:42:29.786Z,9.74
2017-11-24T00:42:34.148Z,9.77
2017-11-24T00:42:38.296Z,9.68
2017-11-24T00:42:42.573Z,9.68
2017-11-24T00:42:46.952Z,9.7
2017-11-24T00:42:51.339Z,9.67
2017-11-24T00:42:55.609Z,9.68
2017-11-24T00:42:59.994Z,9.77
2017-11-24T00:43:04.357Z,9.73
2017-11-24T00:43:08.730Z,9.73
2017-11-24T00:43:13.003Z,9.71
2017-11-24T00:43:17.390Z,9.65
2017-11-24T00:43:21.553Z,9.65
2017-11-24T00:43:25.932Z,9.7
2017-11-24T00:43:30.209Z,9.68
2017-11-24T00:43:34.481Z,9.74
2017-11-24T00:43:38.791Z,9.65
2017-11-24T00:43:43.165Z,9.7
2017-11-24T00:43:47.455Z,9.74
2017-11-24T00:43:51.658Z,9.68
2017-11-24T00:43:56.038Z,9.67
2017-11-24T00:44:00.409Z,9.68
2017-11-24T00:44:04.700Z,9.7
2017-11-24T00:44:09.071Z,9.73
2017-11-24T00:44:13.348Z,9.7
2017-11-24T00:44:17.725Z,9.67
2017-11-24T00:44:22.095Z,9.71
2017-11-24T00:44:26.464Z,9.7
2017-11-24T00:44:30.860Z,9.65
2017-11-24T00:44:34.999Z,9.74
2017-11-24T00:44:39.240Z,9.7
2017-11-24T00:44:43.637Z,9.78
2017-11-24T00:44:47.935Z,9.7
2017-11-24T00:44:52.306Z,9.68
2017-11-24T00:44:56.699Z,9.75
2017-11-24T00:45:00.971Z,9.73
2017-11-24T00:45:05.253Z,9.7
2017-11-24T00:45:09.644Z,9.67
2017-11-24T00:45:13.797Z,9.67
2017-11-24T00:45:18.058Z,9.75
2017-11-24T00:45:22.442Z,9.65
2017-11-24T00:45:26.706Z,9.7
2017-11-24T00:45:30.863Z,9.7
2017-11-24T00:45:35.234Z,9.63
2017-11-24T00:45:39.496Z,9.7
2017-11-24T00:45:43.859Z,9.74
2017-11-24T00:45:48.233Z,9.68
2017-11-24T00:45:52.610Z,9.74
2017-11-24T00:45:56.988Z,9.65
2017-11-24T00:46:01.280Z,9.7
2017-11-24T00:46:05.567Z,9.68
2017-11-24T00:46:09.834Z,9.67
2017-11-24T00:46:13.763Z,9.6
2017-11-24T00:46:17.917Z,9.63
2017-11-24T00:46:22.053Z,9.59
2017-11-24T00:46:26.449Z,9.67
2017-11-24T00:46:30.700Z,9.67
2017-11-24T00:46:34.863Z,9.6
2017-11-24T00:46:38.912Z,9.68
2017-11-24T00:46:43.181Z,9.68
2017-11-24T00:46:47.574Z,9.63
2017-11-24T00:46:51.961Z,9.68
2017-11-24T00:46:56.323Z,9.65
2017-11-24T00:47:00.706Z,9.63
2017-11-24T00:47:05.173Z,9.68
2017-11-24T00:47:09.557Z,9.67
2017-11-24T00:47:13.927Z,9.6
2017-11-24T00:47:18.313Z,9.65
2017-11-24T00:47:22.472Z,9.67
2017-11-24T00:47:26.831Z,9.63
2017-11-24T00:47:31.199Z,9.67
2017-11-24T00:47:35.472Z,9.67
2017-11-24T00:47:39.645Z,9.59
2017-11-24T00:47:43.780Z,9.65
2017-11-24T00:47:48.042Z,9.63
2017-11-24T00:47:52.408Z,9.62
2017-11-24T00:47:56.652Z,9.58
2017-11-24T00:48:01.042Z,9.63
2017-11-24T00:48:05.419Z,9.65
2017-11-24T00:48:09.686Z,9.63
2017-11-24T00:48:13.955Z,9.63
2017-11-24T00:48:18.334Z,9.63
2017-11-24T00:48:22.607Z,9.59
2017-11-24T00:48:26.761Z,9.63
2017-11-24T00:48:31.140Z,9.6
2017-11-24T00:48:35.386Z,9.65
2017-11-24T00:48:39.764Z,9.68
2017-11-24T00:48:44.019Z,9.63
2017-11-24T00:48:48.179Z,9.68
2017-11-24T00:48:52.561Z,9.63
2017-11-24T00:48:56.742Z,9.67
2017-11-24T00:49:01.097Z,9.59
2017-11-24T00:49:05.562Z,9.67
2017-11-24T00:49:09.714Z,9.65
2017-11-24T00:49:13.994Z,9.62
2017-11-24T00:49:18.157Z,9.6
2017-11-24T00:49:22.275Z,9.62
2017-11-24T00:49:26.653Z,9.65
2017-11-24T00:49:30.846Z,9.6
2017-11-24T00:49:35.122Z,9.55
2017-11-24T00:49:39.477Z,9.59
2017-11-24T00:49:43.742Z,9.67
2017-11-24T00:49:48.136Z,9.6
2017-11-24T00:49:52.393Z,9.53
2017-11-24T00:49:56.658Z,9.58
2017-11-24T00:50:01.049Z,9.58
2017-11-24T00:50:05.464Z,9.6
2017-11-24T00:50:09.732Z,9.45
2017-11-24T00:50:14.104Z,9.56
2017-11-24T00:50:18.347Z,9.59
2017-11-24T00:50:22.611Z,9.6
2017-11-24T00:50:26.649Z,9.5
2017-11-24T00:50:30.919Z,9.55
2017-11-24T00:50:35.167Z,9.45
2017-11-24T00:50:39.557Z,9.5
2017-11-24T00:50:43.745Z,9.49
2017-11-24T00:50:47.904Z,9.48
2017-11-24T00:50:52.171Z,9.5
2017-11-24T00:50:56.441Z,9.48
2017-11-24T00:51:00.704Z,9.49
2017-11-24T00:51:04.973Z,9.48
2017-11-24T00:51:09.246Z,9.45
2017-11-24T00:51:13.627Z,9.49
2017-11-24T00:51:17.901Z,9.48
2017-11-24T00:51:22.186Z,9.41
2017-11-24T00:51:26.458Z,9.44
2017-11-24T00:51:30.842Z,9.44
2017-11-24T00:51:35.217Z,9.48
2017-11-24T00:51:39.568Z,9.44
2017-11-24T00:51:43.952Z,9.44
2017-11-24T00:51:48.107Z,9.48
2017-11-24T00:51:52.483Z,9.45
2017-11-24T00:51:56.578Z,9.48
2017-11-24T00:52:00.726Z,9.5
2017-11-24T00:52:05.194Z,9.48
2017-11-24T00:52:09.474Z,9.52
2017-11-24T00:52:13.726Z,9.49
2017-11-24T00:52:18.098Z,9.45
2017-11-24T00:52:22.142Z,9.52
2017-11-24T00:52:26.487Z,9.52
2017-11-24T00:52:30.758Z,9.48
2017-11-24T00:52:35.138Z,9.5
2017-11-24T00:52:39.521Z,9.44
2017-11-24T00:52:43.783Z,9.53
2017-11-24T00:52:48.147Z,9.52
2017-11-24T00:52:52.409Z,9.55
2017-11-24T00:52:56.486Z,9.45
2017-11-24T00:53:00.861Z,9.48
2017-11-24T00:53:05.279Z,9.55
2017-11-24T00:53:09.642Z,9.5
2017-11-24T00:53:14.017Z,9.44
2017-11-24T00:53:18.420Z,9.5
2017-11-24T00:53:22.456Z,9.5
2017-11-24T00:53:26.713Z,9.53
2017-11-24T00:53:31.115Z,9.49
2017-11-24T00:53:35.385Z,9.53
2017-11-24T00:53:39.774Z,9.42
2017-11-24T00:53:44.072Z,9.52
2017-11-24T00:53:48.326Z,9.48
2017-11-24T00:53:52.694Z,9.4
2017-11-24T00:53:56.850Z,9.5
2017-11-24T00:54:01.111Z,9.49
2017-11-24T00:54:05.487Z,9.52
2017-11-24T00:54:09.520Z,9.55
2017-11-24T00:54:13.902Z,9.44
2017-11-24T00:54:18.277Z,9.52
2017-11-24T00:54:22.430Z,9.49
2017-11-24T00:54:26.698Z,9.52
2017-11-24T00:54:30.935Z,9.48
2017-11-24T00:54:35.201Z,9.5
2017-11-24T00:54:39.559Z,9.42
2017-11-24T00:54:43.837Z,9.49
2017-11-24T00:54:48.096Z,9.48
2017-11-24T00:54:52.252Z,9.48
2017-11-24T00:54:56.275Z,9.52
2017-11-24T00:55:00.655Z,9.5
2017-11-24T00:55:04.918Z,9.5
2017-11-24T00:55:09.085Z,9.48
2017-11-24T00:55:13.148Z,9.5
2017-11-24T00:55:17.306Z,9.52
2017-11-24T00:55:21.557Z,9.5
2017-11-24T00:55:25.938Z,9.44
2017-11-24T00:55:30.077Z,9.49
2017-11-24T00:55:34.467Z,9.42
2017-11-24T00:55:38.624Z,9.55
2017-11-24T00:55:42.789Z,9.5
2017-11-24T00:55:47.034Z,9.58
2017-11-24T00:55:51.300Z,9.52
2017-11-24T00:55:55.666Z,9.5
2017-11-24T00:55:59.941Z,9.55
2017-11-24T00:56:04.264Z,9.48
2017-11-24T00:56:08.666Z,9.49
2017-11-24T00:56:13.022Z,9.5
2017-11-24T00:56:17.163Z,9.48
2017-11-24T00:56:21.326Z,9.49
2017-11-24T00:56:25.497Z,9.5
2017-11-24T00:56:29.643Z,9.52
2017-11-24T00:56:34.023Z,9.5
2017-11-24T00:56:38.283Z,9.49
2017-11-24T00:56:42.681Z,9.49
2017-11-24T00:56:46.836Z,9.49
2017-11-24T00:56:51.236Z,9.55
2017-11-24T00:56:55.381Z,9.48
2017-11-24T00:56:59.754Z,9.49